Time;durP1;ratioP1;P1;durP2;ratioP2;P2;SDS_P1;SDS_P2;PMS_P1;PMS_P2;Temp;Humidity;BMP_temperature;BMP_pressure;BME280_temperature;BME280_humidity;BME280_pressure;Samples;Min_cycle;Max_cycle;Signal;HPM_P1;HPM_P2
2022/06/13 00:00:54;;;;;;;1.25;0.90;;;;;;;;;;7392983;19;20457;-83
2022/06/13 00:03:19;;;;;;;3.80;1.05;;;;;;;;;;7395412;19;20015;-85
2022/06/13 00:05:45;;;;;;;3.67;1.17;;;;;;;;;;7394300;19;20101;-83
2022/06/13 00:08:10;;;;;;;5.47;1.42;;;;;;;;;;7394241;19;20441;-81
2022/06/13 00:10:36;;;;;;;5.18;1.67;;;;;;;;;;7394817;19;20022;-83
2022/06/13 00:13:02;;;;;;;4.63;1.67;;;;;;;;;;7397988;19;20010;-85
2022/06/13 00:15:28;;;;;;;3.55;1.60;;;;;;;;;;7400415;19;20002;-88
2022/06/13 00:17:54;;;;;;;5.95;1.60;;;;;;;;;;7398723;19;20003;-87
2022/06/13 00:20:19;;;;;;;2.20;1.30;;;;;;;;;;7396391;19;20095;-88
2022/06/13 00:22:51;;;;;;;2.20;1.30;;;;;;;;;;7402149;19;20837;-89
2022/06/13 00:25:16;;;;;;;4.32;1.50;;;;;;;;;;7404809;19;20111;-87
2022/06/13 00:27:42;;;;;;;2.55;1.63;;;;;;;;;;7399812;19;20011;-90
2022/06/13 00:30:14;;;;;;;4.85;1.30;;;;;;;;;;7394932;19;20002;-89
2022/06/13 00:32:39;;;;;;;1.27;1.17;;;;;;;;;;7395356;19;20481;-89
2022/06/13 00:35:14;;;;;;;1.80;0.98;;;;;;;;;;7393948;19;20006;-91
2022/06/13 00:37:39;;;;;;;3.55;1.27;;;;;;;;;;7397694;19;20031;-89
2022/06/13 00:40:08;;;;;;;1.55;1.45;;;;;;;;;;7391838;19;20006;-91
2022/06/13 00:42:33;;;;;;;2.60;1.33;;;;;;;;;;7394190;19;20082;-90
2022/06/13 00:45:15;;;;;;;2.30;1.40;;;;;;;;;;7394750;19;20049;-89
2022/06/13 00:47:43;;;;;;;3.45;1.88;;;;;;;;;;7398922;19;20486;-89
2022/06/13 00:50:17;;;;;;;2.42;1.40;;;;;;;;;;7394964;19;19999;-90
2022/06/13 00:53:02;;;;;;;4.03;1.60;;;;;;;;;;7397489;19;20006;-89
2022/06/13 00:55:32;;;;;;;2.53;1.20;;;;;;;;;;7398566;19;20083;-91
2022/06/13 00:58:00;;;;;;;3.42;1.63;;;;;;;;;;7392038;19;20011;-91
2022/06/13 01:00:25;;;;;;;2.80;1.25;;;;;;;;;;7394414;19;20299;-89
2022/06/13 01:02:51;;;;;;;2.72;1.48;;;;;;;;;;7397080;19;19995;-89
2022/06/13 01:05:22;;;;;;;2.13;1.40;;;;;;;;;;7398700;19;19999;-89
2022/06/13 01:07:49;;;;;;;1.95;1.50;;;;;;;;;;7393980;19;20906;-89
2022/06/13 01:13:02;;;;;;;2.05;1.30;;;;;;;;;;7396936;19;20074;-88
2022/06/13 01:15:37;;;;;;;3.60;1.20;;;;;;;;;;7394897;19;20474;-87
2022/06/13 01:18:47;;;;;;;1.50;1.30;;;;;;;;;;7389720;19;20021;-88
2022/06/13 01:21:37;;;;;;;1.52;1.40;;;;;;;;;;7385960;19;20558;-88
2022/06/13 01:24:40;;;;;;;4.18;1.70;;;;;;;;;;7392302;19;20802;-88
2022/06/13 01:27:41;;;;;;;6.47;1.48;;;;;;;;;;7388988;19;20002;-88
2022/06/13 01:30:44;;;;;;;2.45;1.50;;;;;;;;;;7388636;19;20129;-87
2022/06/13 01:33:20;;;;;;;4.80;1.77;;;;;;;;;;7395441;19;20499;-87
2022/06/13 01:36:04;;;;;;;5.53;2.13;;;;;;;;;;7395061;19;20003;-85
2022/06/13 01:38:45;;;;;;;3.92;1.58;;;;;;;;;;7396353;19;20011;-86
2022/06/13 01:41:28;;;;;;;3.38;1.30;;;;;;;;;;7392294;19;20017;-86
2022/06/13 01:44:12;;;;;;;1.63;1.02;;;;;;;;;;7393338;19;20017;-86
2022/06/13 01:47:25;;;;;;;0.90;0.90;;;;;;;;;;7392250;19;20620;-86
2022/06/13 01:50:13;;;;;;;2.25;1.35;;;;;;;;;;7391633;19;20006;-85
2022/06/13 01:53:18;;;;;;;4.15;1.20;;;;;;;;;;7395613;19;20003;-86
2022/06/13 01:55:58;;;;;;;4.05;1.23;;;;;;;;;;7390229;19;20035;-86
2022/06/13 01:59:09;;;;;;;2.58;1.23;;;;;;;;;;7392889;19;19998;-86
2022/06/13 02:02:04;;;;;;;1.58;0.93;;;;;;;;;;7387452;19;20010;-86
2022/06/13 02:05:23;;;;;;;3.42;1.13;;;;;;;;;;7393789;19;20015;-86
2022/06/13 02:15:15;;;;;;;1.48;0.93;;;;;;;;;;7391988;19;20006;-88
2022/06/13 02:17:46;;;;;;;2.55;1.48;;;;;;;;;;7390485;19;20038;-86
2022/06/13 02:20:25;;;;;;;1.67;0.90;;;;;;;;;;7391536;19;20359;-86
2022/06/13 02:22:54;;;;;;;3.75;1.10;;;;;;;;;;7392195;19;20037;-85
2022/06/13 02:25:24;;;;;;;1.92;1.15;;;;;;;;;;7392578;19;20006;-85
2022/06/13 02:27:59;;;;;;;3.78;1.00;;;;;;;;;;7392056;19;20006;-86
2022/06/13 02:30:34;;;;;;;1.10;1.00;;;;;;;;;;7393293;19;20546;-85
2022/06/13 02:33:05;;;;;;;2.53;1.23;;;;;;;;;;7394556;19;20002;-85
2022/06/13 02:35:38;;;;;;;3.75;0.80;;;;;;;;;;7389489;19;20441;-85
2022/06/13 02:38:16;;;;;;;2.08;0.95;;;;;;;;;;7394423;19;20466;-85
2022/06/13 02:40:49;;;;;;;1.00;0.90;;;;;;;;;;7390849;19;20038;-84
2022/06/13 02:43:26;;;;;;;0.90;0.70;;;;;;;;;;7395317;19;19994;-85
2022/06/13 02:45:58;;;;;;;1.45;0.88;;;;;;;;;;7392956;19;20003;-85
2022/06/13 02:48:34;;;;;;;2.22;0.98;;;;;;;;;;7392427;19;20473;-85
2022/06/13 02:51:08;;;;;;;2.25;0.90;;;;;;;;;;7391560;19;20490;-84
2022/06/13 02:54:00;;;;;;;0.82;0.80;;;;;;;;;;7393624;19;20011;-84
2022/06/13 02:59:54;;;;;;;11.18;1.30;;;;;;;;;;7392240;19;20013;-84
2022/06/13 03:02:27;;;;;;;3.85;1.73;;;;;;;;;;7395024;19;20515;-85
2022/06/13 03:05:02;;;;;;;2.05;1.23;;;;;;;;;;7390401;19;20010;-83
2022/06/13 03:07:38;;;;;;;3.10;1.65;;;;;;;;;;7392661;19;20027;-84
2022/06/13 03:10:14;;;;;;;1.90;1.30;;;;;;;;;;7388911;19;20006;-83
2022/06/13 03:13:16;;;;;;;1.48;1.20;;;;;;;;;;7392289;19;19987;-83
2022/06/13 03:15:44;;;;;;;3.70;1.25;;;;;;;;;;7389113;19;20461;-83
2022/06/13 03:18:17;;;;;;;1.60;1.08;;;;;;;;;;7391000;19;20010;-83
2022/06/13 03:20:55;;;;;;;2.13;1.33;;;;;;;;;;7391240;19;20010;-83
2022/06/13 03:23:30;;;;;;;2.40;1.30;;;;;;;;;;7391898;19;20013;-84
2022/06/13 03:26:14;;;;;;;1.25;0.90;;;;;;;;;;7391912;19;20367;-83
2022/06/13 03:29:00;;;;;;;1.50;1.00;;;;;;;;;;7389643;19;20787;-84
2022/06/13 03:31:36;;;;;;;1.23;0.98;;;;;;;;;;7390602;19;20002;-83
2022/06/13 03:34:10;;;;;;;3.05;1.10;;;;;;;;;;7386500;19;20003;-83
2022/06/13 03:36:43;;;;;;;2.78;1.23;;;;;;;;;;7387903;19;20038;-83
2022/06/13 03:39:37;;;;;;;0.80;0.80;;;;;;;;;;7389856;19;20005;-83
2022/06/13 03:42:11;;;;;;;0.95;0.73;;;;;;;;;;7390390;19;20023;-83
2022/06/13 03:45:08;;;;;;;2.78;1.33;;;;;;;;;;7387859;19;20047;-83
2022/06/13 03:47:39;;;;;;;;;;;;;;;;;;7386961;19;20066;-83
2022/06/13 03:50:26;;;;;;;1.58;1.20;;;;;;;;;;7387455;19;20334;-82
2022/06/13 03:53:23;;;;;;;3.08;1.48;;;;;;;;;;7390283;19;20002;-83
2022/06/13 03:56:14;;;;;;;1.73;1.30;;;;;;;;;;7386003;19;20029;-82
2022/06/13 03:58:48;;;;;;;1.15;1.05;;;;;;;;;;7388317;19;20011;-83
2022/06/13 04:01:28;;;;;;;1.85;1.60;;;;;;;;;;7388319;19;20098;-83
2022/06/13 04:04:00;;;;;;;1.98;1.45;;;;;;;;;;7389778;19;20023;-83
2022/06/13 04:06:40;;;;;;;2.35;1.52;;;;;;;;;;7391101;19;20018;-82
2022/06/13 04:09:32;;;;;;;4.78;1.83;;;;;;;;;;7386612;19;20003;-83
2022/06/13 04:12:34;;;;;;;2.40;2.00;;;;;;;;;;7383795;19;20007;-83
2022/06/13 04:15:34;;;;;;;2.67;1.67;;;;;;;;;;7392215;19;20009;-82
2022/06/13 04:18:02;;;;;;;2.42;1.85;;;;;;;;;;7394103;19;20014;-83
2022/06/13 04:20:34;;;;;;;2.60;1.60;;;;;;;;;;7396199;19;20377;-82
2022/06/13 04:23:19;;;;;;;1.80;1.65;;;;;;;;;;7394184;19;20006;-83
2022/06/13 04:25:47;;;;;;;;;;;;;;;;;;7393589;19;20002;-83
2022/06/13 04:28:29;;;;;;;6.03;1.60;;;;;;;;;;7395784;19;20303;-82
2022/06/13 04:30:56;;;;;;;9.15;2.00;;;;;;;;;;7391529;19;20339;-83
2022/06/13 04:33:37;;;;;;;3.90;1.85;;;;;;;;;;7396439;19;20636;-83
2022/06/13 04:36:05;;;;;;;2.22;1.75;;;;;;;;;;7395011;19;20492;-82
2022/06/13 04:38:32;;;;;;;2.65;1.70;;;;;;;;;;7395785;19;20048;-82
2022/06/13 04:41:01;;;;;;;1.40;1.30;;;;;;;;;;7393806;19;20003;-82
2022/06/13 04:43:33;;;;;;;2.63;1.52;;;;;;;;;;7393655;19;19995;-82
2022/06/13 04:46:18;;;;;;;1.75;1.50;;;;;;;;;;7394716;19;20116;-82
2022/06/13 04:48:46;;;;;;;1.73;1.55;;;;;;;;;;7395334;19;20381;-82
2022/06/13 04:51:15;;;;;;;1.98;1.65;;;;;;;;;;7393066;19;20648;-82
2022/06/13 04:54:01;;;;;;;2.17;1.67;;;;;;;;;;7396542;19;20005;-82
2022/06/13 04:56:27;;;;;;;1.48;1.25;;;;;;;;;;7393331;19;20010;-82
2022/06/13 04:58:55;;;;;;;2.58;1.83;;;;;;;;;;7395076;19;19994;-82
2022/06/13 05:01:27;;;;;;;1.85;1.50;;;;;;;;;;7391119;19;20059;-82
2022/06/13 05:03:54;;;;;;;1.90;1.50;;;;;;;;;;7395530;19;20002;-82
2022/06/13 05:06:23;;;;;;;2.88;2.10;;;;;;;;;;7393409;19;20507;-82
2022/06/13 05:08:53;;;;;;;4.47;2.53;;;;;;;;;;7391468;19;20018;-82
2022/06/13 05:11:30;;;;;;;3.00;1.55;;;;;;;;;;7393628;19;20014;-82
2022/06/13 05:14:07;;;;;;;2.60;1.30;;;;;;;;;;7392331;19;19998;-82
2022/06/13 05:16:48;;;;;;;1.42;1.20;;;;;;;;;;7391332;19;20014;-82
2022/06/13 05:19:22;;;;;;;1.67;1.35;;;;;;;;;;7395168;19;19998;-82
2022/06/13 05:21:47;;;;;;;3.03;1.45;;;;;;;;;;7388752;19;20010;-81
2022/06/13 05:24:37;;;;;;;2.15;1.45;;;;;;;;;;7395847;19;20006;-82
2022/06/13 05:27:06;;;;;;;2.50;1.30;;;;;;;;;;7392619;19;20496;-82
2022/06/13 05:29:32;;;;;;;1.80;1.33;;;;;;;;;;7395182;19;20005;-82
2022/06/13 05:31:57;;;;;;;1.98;1.42;;;;;;;;;;7390056;19;19994;-81
2022/06/13 05:34:31;;;;;;;2.72;1.63;;;;;;;;;;7391756;19;20003;-81
2022/06/13 05:36:57;;;;;;;2.90;1.40;;;;;;;;;;7392780;19;20624;-81
2022/06/13 05:39:22;;;;;;;2.13;1.50;;;;;;;;;;7391667;19;20015;-81
2022/06/13 05:41:47;;;;;;;1.40;1.30;;;;;;;;;;7393766;19;20055;-81
2022/06/13 05:44:12;;;;;;;2.97;1.67;;;;;;;;;;7393392;19;20013;-81
2022/06/13 05:46:39;;;;;;;2.20;1.50;;;;;;;;;;7391563;19;19998;-82
2022/06/13 05:49:05;;;;;;;2.85;1.83;;;;;;;;;;7393790;19;20035;-81
2022/06/13 05:51:30;;;;;;;1.45;1.23;;;;;;;;;;7388752;19;20006;-81
2022/06/13 05:53:57;;;;;;;2.05;1.70;;;;;;;;;;7394121;19;20400;-81
2022/06/13 05:56:24;;;;;;;2.15;1.50;;;;;;;;;;7395058;19;20077;-81
2022/06/13 05:58:50;;;;;;;6.00;1.35;;;;;;;;;;7390856;19;20561;-81
2022/06/13 06:01:15;;;;;;;3.10;1.33;;;;;;;;;;7393776;19;20487;-81
2022/06/13 06:03:42;;;;;;;2.72;1.40;;;;;;;;;;7396435;19;20023;-81
2022/06/13 06:06:12;;;;;;;3.88;1.45;;;;;;;;;;7392218;19;20015;-82
2022/06/13 06:08:40;;;;;;;2.88;1.50;;;;;;;;;;7391471;19;20366;-81
2022/06/13 06:11:06;;;;;;;2.17;1.40;;;;;;;;;;7388931;19;20115;-81
2022/06/13 06:13:32;;;;;;;1.50;1.40;;;;;;;;;;7395811;19;20103;-81
2022/06/13 06:16:00;;;;;;;2.00;1.42;;;;;;;;;;7391432;19;20098;-81
2022/06/13 06:18:26;;;;;;;1.52;1.10;;;;;;;;;;7381332;19;20010;-81
2022/06/13 06:20:52;;;;;;;2.47;1.50;;;;;;;;;;7392946;19;20019;-81
2022/06/13 06:23:17;;;;;;;2.83;1.55;;;;;;;;;;7388811;19;20404;-81
2022/06/13 06:25:45;;;;;;;1.98;1.30;;;;;;;;;;7397403;19;20003;-81
2022/06/13 06:28:22;;;;;;;2.33;1.20;;;;;;;;;;7393110;19;19999;-81
2022/06/13 06:30:50;;;;;;;5.68;1.70;;;;;;;;;;7389894;19;20044;-81
2022/06/13 06:33:15;;;;;;;2.08;1.42;;;;;;;;;;7390157;19;20010;-82
2022/06/13 06:35:41;;;;;;;2.03;1.42;;;;;;;;;;7390455;19;20048;-80
2022/06/13 06:38:07;;;;;;;2.83;1.38;;;;;;;;;;7379510;19;20033;-81
2022/06/13 06:40:33;;;;;;;1.67;1.40;;;;;;;;;;7385397;19;20010;-81
2022/06/13 06:42:59;;;;;;;1.88;1.30;;;;;;;;;;7395509;19;20009;-81
2022/06/13 06:45:25;;;;;;;1.77;1.67;;;;;;;;;;7389494;19;20006;-81
2022/06/13 06:47:52;;;;;;;2.13;1.60;;;;;;;;;;7393048;19;20022;-81
2022/06/13 06:50:20;;;;;;;2.05;1.60;;;;;;;;;;7394705;19;20002;-81
2022/06/13 06:52:46;;;;;;;1.33;1.23;;;;;;;;;;7391935;19;20040;-81
2022/06/13 07:00:43;;;;;;;3.95;1.38;;;;;;;;;;7394801;19;20017;-80
2022/06/13 07:03:08;;;;;;;2.25;1.60;;;;;;;;;;7393312;19;20002;-80
2022/06/13 07:05:34;;;;;;;1.88;1.25;;;;;;;;;;7390941;19;20011;-80
2022/06/13 07:07:59;;;;;;;2.45;1.30;;;;;;;;;;7393513;19;20007;-81
2022/06/13 07:10:24;;;;;;;4.68;1.50;;;;;;;;;;7390767;19;19998;-80
2022/06/13 07:12:49;;;;;;;3.65;1.58;;;;;;;;;;7393474;19;20023;-80
2022/06/13 07:15:15;;;;;;;2.05;1.20;;;;;;;;;;7391388;19;20007;-81
2022/06/13 07:17:40;;;;;;;1.67;1.30;;;;;;;;;;7389103;19;20015;-80
2022/06/13 07:20:07;;;;;;;1.70;1.20;;;;;;;;;;7390026;19;20375;-80
2022/06/13 07:22:32;;;;;;;3.67;1.25;;;;;;;;;;7393434;19;19995;-80
2022/06/13 07:24:58;;;;;;;1.55;1.17;;;;;;;;;;7391869;19;20709;-80
2022/06/13 07:27:23;;;;;;;1.73;1.30;;;;;;;;;;7391279;19;20424;-80
2022/06/13 07:29:48;;;;;;;5.57;1.38;;;;;;;;;;7389541;19;20330;-80
2022/06/13 07:32:20;;;;;;;4.35;1.17;;;;;;;;;;7387846;19;20889;-80
2022/06/13 07:34:49;;;;;;;5.28;1.30;;;;;;;;;;7387806;19;20669;-80
2022/06/13 07:38:16;;;;;;;2.60;1.27;;;;;;;;;;7390935;19;20014;-80
2022/06/13 07:40:05;;;;;;;1.92;1.25;;;;;;;;;;7386982;19;20393;-80
2022/06/13 07:42:52;;;;;;;1.90;1.40;;;;;;;;;;7392228;19;20037;-80
2022/06/13 07:45:22;;;;;;;3.33;1.58;;;;;;;;;;7389742;19;20010;-80
2022/06/13 07:47:49;;;;;;;1.13;1.02;;;;;;;;;;7394053;19;20110;-81
2022/06/13 07:50:16;;;;;;;2.45;1.17;;;;;;;;;;7396811;19;20002;-80
2022/06/13 07:52:42;;;;;;;2.03;1.30;;;;;;;;;;7399063;19;20003;-80
2022/06/13 07:55:08;;;;;;;2.10;1.20;;;;;;;;;;7401214;19;20007;-80
2022/06/13 07:57:33;;;;;;;2.80;1.10;;;;;;;;;;7404109;19;20072;-82
2022/06/13 07:59:59;;;;;;;2.97;1.48;;;;;;;;;;7400928;19;20010;-80
2022/06/13 08:02:29;;;;;;;4.80;1.42;;;;;;;;;;7401255;19;20002;-80
2022/06/13 08:04:55;;;;;;;2.03;1.40;;;;;;;;;;7396108;19;20025;-81
2022/06/13 08:07:20;;;;;;;7.68;1.30;;;;;;;;;;7401357;19;20024;-80
2022/06/13 08:09:46;;;;;;;2.10;1.33;;;;;;;;;;7401594;19;20062;-80
2022/06/13 08:12:14;;;;;;;2.95;1.48;;;;;;;;;;7397492;19;19995;-82
2022/06/13 08:14:45;;;;;;;3.60;1.25;;;;;;;;;;7401146;19;20035;-81
2022/06/13 08:17:11;;;;;;;1.30;1.10;;;;;;;;;;7398458;19;20006;-80
2022/06/13 08:19:37;;;;;;;2.35;1.35;;;;;;;;;;7399810;19;20481;-80
2022/06/13 08:22:02;;;;;;;3.20;1.20;;;;;;;;;;7397240;19;20002;-81
2022/06/13 08:24:27;;;;;;;6.82;1.55;;;;;;;;;;7397928;19;20015;-80
2022/06/13 08:26:53;;;;;;;5.80;1.58;;;;;;;;;;7399929;19;20143;-80
2022/06/13 08:29:18;;;;;;;4.22;1.42;;;;;;;;;;7397650;19;20077;-80
2022/06/13 08:31:43;;;;;;;3.20;1.20;;;;;;;;;;7397580;19;20066;-80
2022/06/13 08:34:08;;;;;;;3.80;1.05;;;;;;;;;;7397299;19;20466;-80
2022/06/13 08:36:34;;;;;;;2.67;1.40;;;;;;;;;;7397125;19;20554;-82
2022/06/13 08:38:59;;;;;;;4.93;1.17;;;;;;;;;;7398866;19;20365;-83
2022/06/13 08:41:50;;;;;;;3.30;1.38;;;;;;;;;;7410404;19;20386;-82
2022/06/13 08:44:47;;;;;;;8.10;1.75;;;;;;;;;;7400634;19;20006;-81
2022/06/13 08:47:40;;;;;;;2.88;1.25;;;;;;;;;;7395875;19;19994;-82
2022/06/13 08:50:20;;;;;;;3.40;1.60;;;;;;;;;;7396577;19;20014;-82
2022/06/13 08:53:02;;;;;;;6.93;1.95;;;;;;;;;;7397188;19;20007;-81
2022/06/13 08:55:53;;;;;;;3.20;1.10;;;;;;;;;;7398949;19;20002;-81
2022/06/13 08:58:41;;;;;;;2.90;1.38;;;;;;;;;;7395903;19;20022;-82
2022/06/13 09:01:15;;;;;;;3.15;1.45;;;;;;;;;;7394695;19;20014;-83
2022/06/13 09:03:43;;;;;;;6.45;1.63;;;;;;;;;;7399380;19;20579;-82
2022/06/13 09:06:45;;;;;;;4.30;1.50;;;;;;;;;;7396575;19;20132;-82
2022/06/13 09:09:20;;;;;;;1.27;1.17;;;;;;;;;;7392976;19;20002;-82
2022/06/13 09:11:58;;;;;;;2.80;1.30;;;;;;;;;;7390415;19;20003;-82
2022/06/13 09:14:33;;;;;;;2.00;1.27;;;;;;;;;;7395137;19;20474;-82
2022/06/13 09:17:21;;;;;;;5.10;1.67;;;;;;;;;;7397752;19;19991;-82
2022/06/13 09:19:54;;;;;;;3.15;1.10;;;;;;;;;;7394630;19;20027;-83
2022/06/13 09:22:27;;;;;;;3.63;1.20;;;;;;;;;;7395494;19;20078;-83
2022/06/13 09:25:17;;;;;;;3.80;1.13;;;;;;;;;;7396110;19;19990;-85
2022/06/13 09:28:26;;;;;;;3.40;1.23;;;;;;;;;;7397495;19;20457;-83
2022/06/13 09:30:58;;;;;;;3.92;1.33;;;;;;;;;;7391919;19;20026;-82
2022/06/13 09:33:30;;;;;;;3.53;1.20;;;;;;;;;;7395337;19;20014;-83
2022/06/13 09:36:06;;;;;;;3.60;1.10;;;;;;;;;;7395029;19;20006;-81
2022/06/13 09:38:41;;;;;;;6.35;1.05;;;;;;;;;;7394889;19;19994;-81
2022/06/13 09:41:27;;;;;;;2.50;0.90;;;;;;;;;;7389499;19;20330;-83
2022/06/13 09:43:59;;;;;;;1.95;1.00;;;;;;;;;;7394215;19;20011;-82
2022/06/13 09:47:18;;;;;;;2.67;1.10;;;;;;;;;;7392914;19;20007;-83
2022/06/13 09:49:54;;;;;;;2.20;0.80;;;;;;;;;;7386911;19;20048;-82
2022/06/13 09:52:25;;;;;;;2.50;1.10;;;;;;;;;;7391878;19;20462;-82
2022/06/13 09:55:05;;;;;;;2.50;1.10;;;;;;;;;;7395370;19;20011;-82
2022/06/13 09:57:48;;;;;;;3.10;1.20;;;;;;;;;;7393106;19;20624;-82
2022/06/13 10:00:20;;;;;;;5.57;1.10;;;;;;;;;;7391599;19;20007;-83
2022/06/13 10:03:00;;;;;;;3.70;1.00;;;;;;;;;;7394943;19;20010;-82
2022/06/13 10:05:36;;;;;;;4.32;1.50;;;;;;;;;;7394783;19;20485;-82
2022/06/13 10:08:03;;;;;;;3.55;1.42;;;;;;;;;;7393870;19;20005;-84
2022/06/13 10:10:44;;;;;;;3.35;1.23;;;;;;;;;;7391585;19;20647;-83
2022/06/13 10:13:28;;;;;;;5.97;1.27;;;;;;;;;;7390670;19;20002;-85
2022/06/13 10:16:02;;;;;;;3.75;1.00;;;;;;;;;;7391321;19;20015;-83
2022/06/13 10:18:42;;;;;;;3.90;1.10;;;;;;;;;;7393190;19;20006;-83
2022/06/13 10:21:16;;;;;;;4.80;1.20;;;;;;;;;;7388700;19;20015;-84
2022/06/13 10:23:50;;;;;;;5.60;1.00;;;;;;;;;;7394397;19;20002;-84
2022/06/13 10:26:21;;;;;;;2.97;1.10;;;;;;;;;;7389492;19;19995;-83
2022/06/13 10:28:58;;;;;;;2.42;0.95;;;;;;;;;;7390026;19;20002;-82
2022/06/13 10:31:51;;;;;;;2.85;1.10;;;;;;;;;;7389978;19;20402;-84
2022/06/13 10:34:42;;;;;;;4.60;1.30;;;;;;;;;;7390636;19;19998;-83
2022/06/13 10:37:19;;;;;;;4.55;1.10;;;;;;;;;;7388674;19;20043;-83
2022/06/13 10:39:47;;;;;;;4.13;1.23;;;;;;;;;;7393377;19;20014;-83
2022/06/13 10:42:18;;;;;;;2.63;1.05;;;;;;;;;;7395299;19;20011;-83
2022/06/13 10:44:43;;;;;;;3.78;1.08;;;;;;;;;;7394453;19;19998;-82
2022/06/13 10:47:16;;;;;;;2.88;1.02;;;;;;;;;;7393486;19;20031;-84
2022/06/13 10:49:51;;;;;;;2.60;0.90;;;;;;;;;;7393280;19;20022;-85
2022/06/13 10:52:24;;;;;;;2.22;1.00;;;;;;;;;;7390425;19;19999;-82
2022/06/13 10:54:54;;;;;;;2.42;1.05;;;;;;;;;;7394375;19;20030;-82
2022/06/13 10:57:26;;;;;;;3.88;1.10;;;;;;;;;;7394146;19;20015;-82
2022/06/13 11:00:15;;;;;;;3.50;0.90;;;;;;;;;;7392983;19;20017;-84
2022/06/13 11:02:41;;;;;;;4.47;1.27;;;;;;;;;;7391853;19;20006;-83
2022/06/13 11:05:21;;;;;;;4.72;1.02;;;;;;;;;;7392410;19;20011;-83
2022/06/13 11:07:52;;;;;;;2.92;0.70;;;;;;;;;;7394162;19;19998;-83
2022/06/13 11:10:20;;;;;;;2.20;0.80;;;;;;;;;;7390507;19;20011;-83
2022/06/13 11:13:07;;;;;;;4.00;1.00;;;;;;;;;;7392171;19;19999;-84
2022/06/13 11:24:18;;;;;;;3.88;1.10;;;;;;;;;;7392558;19;20115;-83
2022/06/13 11:29:32;;;;;;;4.18;1.00;;;;;;;;;;7399155;19;20018;-84
2022/06/13 11:31:59;;;;;;;1.83;0.65;;;;;;;;;;7397149;19;20002;-83
2022/06/13 11:34:34;;;;;;;2.25;1.08;;;;;;;;;;7399051;19;20457;-84
2022/06/13 11:37:02;;;;;;;2.17;1.23;;;;;;;;;;7398796;19;19983;-83
2022/06/13 11:39:38;;;;;;;2.05;0.95;;;;;;;;;;7395254;19;20022;-83
2022/06/13 11:42:16;;;;;;;3.80;0.90;;;;;;;;;;7392799;19;20127;-85
2022/06/13 11:44:48;;;;;;;3.20;1.15;;;;;;;;;;7395435;19;20504;-85
2022/06/13 11:47:14;;;;;;;1.90;0.80;;;;;;;;;;7398762;19;20026;-85
2022/06/13 11:49:45;;;;;;;3.72;1.48;;;;;;;;;;7399066;19;20002;-85
2022/06/13 11:52:10;;;;;;;3.20;1.00;;;;;;;;;;7393065;19;20437;-85
2022/06/13 11:54:54;;;;;;;1.63;0.80;;;;;;;;;;7396261;19;20002;-85
2022/06/13 11:57:36;;;;;;;4.93;1.10;;;;;;;;;;7395483;19;20343;-84
2022/06/13 12:00:04;;;;;;;3.35;1.00;;;;;;;;;;7392361;19;20018;-85
2022/06/13 12:02:39;;;;;;;2.90;1.10;;;;;;;;;;7396764;19;20477;-84
2022/06/13 12:05:19;;;;;;;3.25;0.88;;;;;;;;;;7394946;19;20657;-86
2022/06/13 12:08:15;;;;;;;4.03;1.00;;;;;;;;;;7399353;19;20014;-85
2022/06/13 12:10:54;;;;;;;3.58;1.15;;;;;;;;;;7394722;19;20010;-84
2022/06/13 12:13:22;;;;;;;7.85;1.17;;;;;;;;;;7398765;19;20113;-83
2022/06/13 12:16:17;;;;;;;3.90;0.88;;;;;;;;;;7400066;19;20002;-85
2022/06/13 12:18:56;;;;;;;1.42;0.73;;;;;;;;;;7393861;19;20462;-85
2022/06/13 12:21:43;;;;;;;3.97;1.00;;;;;;;;;;7392440;19;20011;-85
2022/06/13 12:24:12;;;;;;;2.28;0.90;;;;;;;;;;7397068;19;20491;-84
2022/06/13 12:26:42;;;;;;;2.97;0.90;;;;;;;;;;7399342;19;20391;-83
2022/06/13 12:29:34;;;;;;;3.60;0.80;;;;;;;;;;7394980;19;20616;-84
2022/06/13 12:32:13;;;;;;;1.77;0.70;;;;;;;;;;7394173;19;20025;-84
2022/06/13 12:35:13;;;;;;;2.92;1.02;;;;;;;;;;7396656;19;20038;-86
2022/06/13 12:37:50;;;;;;;2.42;0.90;;;;;;;;;;7394706;19;20298;-84
2022/06/13 12:40:24;;;;;;;3.13;1.27;;;;;;;;;;7392959;19;20083;-84
2022/06/13 12:43:05;;;;;;;2.90;1.02;;;;;;;;;;7398952;19;20353;-85
2022/06/13 12:45:53;;;;;;;1.98;0.90;;;;;;;;;;7393957;19;20004;-85
2022/06/13 12:48:28;;;;;;;4.90;1.00;;;;;;;;;;7394483;19;20002;-84
2022/06/13 12:51:20;;;;;;;2.30;0.80;;;;;;;;;;7393492;19;19994;-83
2022/06/13 12:54:08;;;;;;;2.83;0.88;;;;;;;;;;7393529;19;20019;-85
2022/06/13 12:57:18;;;;;;;2.83;0.93;;;;;;;;;;7397500;19;20010;-84
2022/06/13 12:59:50;;;;;;;4.88;1.20;;;;;;;;;;7397203;19;19999;-84
2022/06/13 13:02:28;;;;;;;4.53;1.10;;;;;;;;;;7391745;19;20463;-83
2022/06/13 13:05:02;;;;;;;3.40;1.00;;;;;;;;;;7394209;19;20418;-83
2022/06/13 13:07:45;;;;;;;2.22;0.98;;;;;;;;;;7394781;19;19998;-85
2022/06/13 13:10:25;;;;;;;2.30;1.02;;;;;;;;;;7393742;19;20018;-85
2022/06/13 13:13:11;;;;;;;3.17;1.10;;;;;;;;;;7395506;19;20002;-85
2022/06/13 13:15:47;;;;;;;2.30;1.08;;;;;;;;;;7396569;19;20050;-84
2022/06/13 13:18:22;;;;;;;5.30;1.08;;;;;;;;;;7393663;19;20018;-84
2022/06/13 13:20:55;;;;;;;2.50;1.10;;;;;;;;;;7395874;19;20074;-85
2022/06/13 13:23:24;;;;;;;2.35;0.90;;;;;;;;;;7394519;19;20014;-83
2022/06/13 13:26:38;;;;;;;3.00;0.93;;;;;;;;;;7396447;19;20009;-84
2022/06/13 13:29:23;;;;;;;2.63;0.90;;;;;;;;;;7391735;19;20022;-84
2022/06/13 13:32:10;;;;;;;2.05;0.98;;;;;;;;;;7391626;19;20003;-84
2022/06/13 13:34:57;;;;;;;3.55;0.98;;;;;;;;;;7394717;19;20027;-84
2022/06/13 13:37:40;;;;;;;2.22;1.10;;;;;;;;;;7393806;19;20025;-84
2022/06/13 13:40:17;;;;;;;1.90;0.90;;;;;;;;;;7389823;19;20006;-85
2022/06/13 13:42:55;;;;;;;4.40;1.13;;;;;;;;;;7394774;19;20014;-84
2022/06/13 13:45:46;;;;;;;2.50;0.90;;;;;;;;;;7394986;19;19999;-85
2022/06/13 13:49:02;;;;;;;3.65;1.00;;;;;;;;;;7391316;19;20017;-84
2022/06/13 13:51:42;;;;;;;1.65;1.00;;;;;;;;;;7391423;19;19998;-85
2022/06/13 13:54:28;;;;;;;2.30;1.10;;;;;;;;;;7393290;19;20015;-84
2022/06/13 13:57:03;;;;;;;2.33;1.00;;;;;;;;;;7391590;19;20018;-84
2022/06/13 13:59:31;;;;;;;1.88;0.80;;;;;;;;;;7392528;19;19998;-84
2022/06/13 14:02:19;;;;;;;2.28;0.70;;;;;;;;;;7390189;19;20098;-85
2022/06/13 14:04:58;;;;;;;3.03;0.98;;;;;;;;;;7393090;19;20007;-85
2022/06/13 14:07:47;;;;;;;1.20;0.80;;;;;;;;;;7393982;19;20003;-84
2022/06/13 14:10:16;;;;;;;3.08;1.10;;;;;;;;;;7391665;19;20392;-81
2022/06/13 14:13:17;;;;;;;3.13;1.00;;;;;;;;;;7393228;19;20010;-81
2022/06/13 14:15:49;;;;;;;1.85;0.70;;;;;;;;;;7390460;19;20335;-82
2022/06/13 14:18:32;;;;;;;0.93;0.60;;;;;;;;;;7393330;19;20020;-82
2022/06/13 14:21:01;;;;;;;3.42;0.90;;;;;;;;;;7389703;19;20021;-85
2022/06/13 14:23:53;;;;;;;2.65;0.98;;;;;;;;;;7393506;19;20017;-82
2022/06/13 14:26:33;;;;;;;3.80;0.80;;;;;;;;;;7391406;19;20010;-82
2022/06/13 14:29:04;;;;;;;1.42;0.80;;;;;;;;;;7387421;19;20018;-83
2022/06/13 14:31:29;;;;;;;2.42;0.60;;;;;;;;;;7391143;19;20018;-82
2022/06/13 14:36:51;;;;;;;2.35;0.80;;;;;;;;;;7390626;19;20055;-82
2022/06/13 14:39:26;;;;;;;2.13;0.70;;;;;;;;;;7389072;19;20003;-83
2022/06/13 14:41:51;;;;;;;1.80;0.70;;;;;;;;;;7387824;19;20001;-83
2022/06/13 14:44:36;;;;;;;2.03;0.90;;;;;;;;;;7390885;19;20039;-82
2022/06/13 14:47:19;;;;;;;0.95;0.60;;;;;;;;;;7389382;19;20002;-82
2022/06/13 14:49:53;;;;;;;1.30;0.80;;;;;;;;;;7390139;19;20477;-83
2022/06/13 14:52:29;;;;;;;4.05;0.85;;;;;;;;;;7391006;19;20021;-83
2022/06/13 14:55:04;;;;;;;3.00;0.77;;;;;;;;;;7390754;19;20667;-85
2022/06/13 14:57:32;;;;;;;2.67;0.98;;;;;;;;;;7390165;19;20553;-83
2022/06/13 15:00:03;;;;;;;1.65;0.75;;;;;;;;;;7388786;19;20034;-84
2022/06/13 15:02:32;;;;;;;1.23;0.90;;;;;;;;;;7383603;19;20055;-84
2022/06/13 15:05:09;;;;;;;2.20;0.73;;;;;;;;;;7389912;19;20377;-83
2022/06/13 15:08:01;;;;;;;2.67;0.80;;;;;;;;;;7386614;19;20021;-84
2022/06/13 15:10:34;;;;;;;3.03;0.88;;;;;;;;;;7386732;19;20372;-84
2022/06/13 15:12:59;;;;;;;0.98;0.60;;;;;;;;;;7386828;19;20006;-83
2022/06/13 15:15:29;;;;;;;1.95;0.80;;;;;;;;;;7387624;19;20006;-83
2022/06/13 15:17:56;;;;;;;2.13;0.80;;;;;;;;;;7389160;19;20485;-84
2022/06/13 15:20:27;;;;;;;2.72;0.93;;;;;;;;;;7388884;19;20014;-84
2022/06/13 15:23:00;;;;;;;2.35;0.88;;;;;;;;;;7385521;19;20112;-84
2022/06/13 15:25:42;;;;;;;0.90;0.80;;;;;;;;;;7383742;19;20010;-84
2022/06/13 15:28:11;;;;;;;2.08;0.80;;;;;;;;;;7387984;19;20010;-84
2022/06/13 15:30:42;;;;;;;0.68;0.60;;;;;;;;;;7385630;19;20431;-83
2022/06/13 15:33:21;;;;;;;3.75;0.90;;;;;;;;;;7383393;19;20133;-84
2022/06/13 15:35:56;;;;;;;1.45;0.80;;;;;;;;;;7391136;19;20018;-84
2022/06/13 15:38:37;;;;;;;2.42;1.00;;;;;;;;;;7386472;19;20031;-84
2022/06/13 15:41:10;;;;;;;1.65;0.80;;;;;;;;;;7389009;19;20003;-84
2022/06/13 15:43:52;;;;;;;2.00;0.90;;;;;;;;;;7388426;19;20011;-85
2022/06/13 15:46:47;;;;;;;3.28;1.00;;;;;;;;;;7389998;19;20070;-86
2022/06/13 15:49:15;;;;;;;2.38;0.80;;;;;;;;;;7389504;19;20022;-84
2022/06/13 15:52:12;;;;;;;1.35;0.80;;;;;;;;;;7386310;19;20017;-84
2022/06/13 15:54:41;;;;;;;2.47;0.55;;;;;;;;;;7392230;19;20031;-84
2022/06/13 15:57:15;;;;;;;1.33;0.80;;;;;;;;;;7389850;19;20021;-84
2022/06/13 16:00:05;;;;;;;2.63;1.02;;;;;;;;;;7388269;19;20034;-84
2022/06/13 16:02:43;;;;;;;1.95;0.90;;;;;;;;;;7389243;19;20058;-84
2022/06/13 16:05:23;;;;;;;2.40;1.15;;;;;;;;;;7389810;19;20007;-84
2022/06/13 16:07:52;;;;;;;1.70;0.80;;;;;;;;;;7388484;19;20014;-84